Time;durP1;ratioP1;P1;durP2;ratioP2;P2;SDS_P1;SDS_P2;PMS_P1;PMS_P2;Temp;Humidity;BMP_temperature;BMP_pressure;BME280_temperature;BME280_humidity;BME280_pressure;Samples;Min_cycle;Max_cycle;Signal;HPM_P1;HPM_P2
2023/03/30 00:00:20;;;;;;;7.07;2.93;;;;;;;;;;4995524;28;20061;-78
2023/03/30 00:02:48;;;;;;;8.13;2.97;;;;;;;;;;4997856;28;20033;-77
2023/03/30 00:05:14;;;;;;;5.90;3.00;;;;;;;;;;4987768;28;20072;-77
2023/03/30 00:07:41;;;;;;;8.60;3.20;;;;;;;;;;4991698;28;20029;-77
2023/03/30 00:10:07;;;;;;;5.30;2.50;;;;;;;;;;4995028;28;20113;-77
2023/03/30 00:12:33;;;;;;;9.30;3.20;;;;;;;;;;4986962;28;20386;-77
2023/03/30 00:14:59;;;;;;;10.40;2.67;;;;;;;;;;4996147;28;20033;-77
2023/03/30 00:17:25;;;;;;;6.40;2.80;;;;;;;;;;4990496;28;20168;-77
2023/03/30 00:19:51;;;;;;;6.60;2.37;;;;;;;;;;4993544;28;20040;-77
2023/03/30 00:22:17;;;;;;;6.73;2.33;;;;;;;;;;4988847;28;20017;-78
2023/03/30 00:24:43;;;;;;;6.63;1.90;;;;;;;;;;4995983;28;20092;-78
2023/03/30 00:27:09;;;;;;;4.80;2.10;;;;;;;;;;4987038;28;20030;-76
2023/03/30 00:29:35;;;;;;;6.70;2.20;;;;;;;;;;5005826;28;20355;-78
2023/03/30 00:32:02;;;;;;;5.77;2.17;;;;;;;;;;4994215;28;20653;-77
2023/03/30 00:34:28;;;;;;;10.53;2.23;;;;;;;;;;5008022;28;20023;-78
2023/03/30 00:36:55;;;;;;;6.37;1.97;;;;;;;;;;4990936;28;20530;-77
2023/03/30 00:39:22;;;;;;;8.30;2.23;;;;;;;;;;4991104;28;20085;-77
2023/03/30 00:41:48;;;;;;;10.17;2.53;;;;;;;;;;5007810;28;20026;-77
2023/03/30 00:44:33;;;;;;;8.60;2.43;;;;;;;;;;4985431;28;20158;-77
2023/03/30 00:46:59;;;;;;;10.03;2.10;;;;;;;;;;5005761;28;20133;-77
2023/03/30 00:49:25;;;;;;;8.17;2.47;;;;;;;;;;4998221;28;20022;-77
2023/03/30 00:51:54;;;;;;;7.07;2.07;;;;;;;;;;4986644;28;20025;-77
2023/03/30 00:54:20;;;;;;;9.30;2.00;;;;;;;;;;4993438;28;20118;-77
2023/03/30 00:56:46;;;;;;;6.70;2.20;;;;;;;;;;4989528;28;20443;-77
2023/03/30 00:59:13;;;;;;;7.37;1.87;;;;;;;;;;4994958;28;20699;-78
2023/03/30 01:01:40;;;;;;;7.60;1.83;;;;;;;;;;4995185;28;20026;-77
2023/03/30 01:04:07;;;;;;;6.53;2.00;;;;;;;;;;5006072;28;20057;-78
2023/03/30 01:06:38;;;;;;;5.37;2.00;;;;;;;;;;4989433;28;20351;-77
2023/03/30 01:09:05;;;;;;;6.80;1.70;;;;;;;;;;4985422;28;20041;-76
2023/03/30 01:11:31;;;;;;;14.67;2.00;;;;;;;;;;4994685;28;20046;-77
2023/03/30 01:14:00;;;;;;;10.03;2.13;;;;;;;;;;4985153;28;20030;-77
2023/03/30 01:16:44;;;;;;;7.93;1.83;;;;;;;;;;4986772;28;20021;-77
2023/03/30 01:19:32;;;;;;;7.00;2.07;;;;;;;;;;5006653;28;20125;-77
2023/03/30 01:22:16;;;;;;;7.30;2.13;;;;;;;;;;5004150;28;20027;-77
2023/03/30 01:25:01;;;;;;;8.40;2.40;;;;;;;;;;4993486;28;20054;-78
2023/03/30 01:27:47;;;;;;;5.87;1.90;;;;;;;;;;4992236;28;20056;-78
2023/03/30 01:30:42;;;;;;;8.23;1.90;;;;;;;;;;4987141;28;20137;-77
2023/03/30 01:33:17;;;;;;;5.30;2.07;;;;;;;;;;4984144;28;20068;-78
2023/03/30 01:36:08;;;;;;;5.60;1.90;;;;;;;;;;5007415;28;20374;-77
2023/03/30 01:38:53;;;;;;;5.37;1.83;;;;;;;;;;4992728;28;20034;-77
2023/03/30 01:41:37;;;;;;;7.70;2.20;;;;;;;;;;5005271;28;20034;-77
2023/03/30 01:44:06;;;;;;;7.50;1.97;;;;;;;;;;4990374;28;20030;-77
2023/03/30 01:46:34;;;;;;;8.10;2.17;;;;;;;;;;4990520;28;20382;-78
2023/03/30 01:49:14;;;;;;;8.47;2.03;;;;;;;;;;4989037;28;20113;-77
2023/03/30 01:51:42;;;;;;;10.13;2.23;;;;;;;;;;4985739;28;20029;-77
2023/03/30 01:54:24;;;;;;;7.37;2.40;;;;;;;;;;4985451;28;20092;-77
2023/03/30 01:56:54;;;;;;;7.75;2.22;;;;;;;;;;4990757;28;20765;-77
2023/03/30 01:59:33;;;;;;;8.27;1.80;;;;;;;;;;4994214;28;20033;-77
2023/03/30 02:02:02;;;;;;;3.73;1.50;;;;;;;;;;4984781;28;20021;-77
2023/03/30 02:04:30;;;;;;;6.67;2.17;;;;;;;;;;4987571;28;20113;-76
2023/03/30 02:06:59;;;;;;;7.63;2.07;;;;;;;;;;4994108;28;20026;-76
2023/03/30 02:09:26;;;;;;;6.30;1.63;;;;;;;;;;4985349;28;20180;-78
2023/03/30 02:11:53;;;;;;;7.57;2.00;;;;;;;;;;4987787;28;20037;-78
2023/03/30 02:14:21;;;;;;;7.00;1.80;;;;;;;;;;5008288;28;20029;-77
2023/03/30 02:16:51;;;;;;;9.40;1.97;;;;;;;;;;5008052;28;20041;-77
2023/03/30 02:19:18;;;;;;;7.67;1.60;;;;;;;;;;4989596;28;20026;-78
2023/03/30 02:21:45;;;;;;;10.30;1.95;;;;;;;;;;4993633;28;20180;-78
2023/03/30 02:24:16;;;;;;;6.50;1.57;;;;;;;;;;5004739;28;20099;-77
2023/03/30 02:26:45;;;;;;;7.03;2.27;;;;;;;;;;4994165;28;20022;-78
2023/03/30 02:29:11;;;;;;;6.30;2.03;;;;;;;;;;4987763;28;20040;-78
2023/03/30 02:31:37;;;;;;;7.63;2.10;;;;;;;;;;5008279;28;20025;-77
2023/03/30 02:34:06;;;;;;;8.77;2.40;;;;;;;;;;4985841;28;20030;-78
2023/03/30 02:36:51;;;;;;;10.20;2.33;;;;;;;;;;5007298;28;20054;-78
2023/03/30 02:39:23;;;;;;;12.80;2.30;;;;;;;;;;5007192;28;20034;-77
2023/03/30 02:41:55;;;;;;;9.00;1.95;;;;;;;;;;4996637;28;20052;-78
2023/03/30 02:44:42;;;;;;;7.32;2.55;;;;;;;;;;4996583;28;20129;-76
2023/03/30 02:47:22;;;;;;;7.63;1.70;;;;;;;;;;4995580;28;20117;-78
2023/03/30 02:49:51;;;;;;;11.60;2.23;;;;;;;;;;5008422;28;20054;-77
2023/03/30 02:52:23;;;;;;;6.27;2.03;;;;;;;;;;4998391;28;20525;-78
2023/03/30 02:54:58;;;;;;;8.98;1.63;;;;;;;;;;4992727;28;20089;-76
2023/03/30 02:57:40;;;;;;;12.37;2.03;;;;;;;;;;4988164;28;20395;-78
2023/03/30 03:00:16;;;;;;;10.60;2.03;;;;;;;;;;4992162;28;20040;-77
2023/03/30 03:02:44;;;;;;;5.30;1.50;;;;;;;;;;4996185;28;20029;-78
2023/03/30 03:05:13;;;;;;;6.83;1.57;;;;;;;;;;4993231;28;20180;-77
2023/03/30 03:07:40;;;;;;;6.87;1.77;;;;;;;;;;4995624;28;20144;-77
2023/03/30 03:10:06;;;;;;;11.13;2.03;;;;;;;;;;4992464;28;20031;-77
2023/03/30 03:12:35;;;;;;;6.27;2.20;;;;;;;;;;4999698;28;20041;-78
2023/03/30 03:15:02;;;;;;;9.87;1.87;;;;;;;;;;4996305;28;20077;-77
2023/03/30 03:17:33;;;;;;;6.87;1.73;;;;;;;;;;5006007;28;20045;-76
2023/03/30 03:20:00;;;;;;;11.57;1.80;;;;;;;;;;4990510;28;20022;-77
2023/03/30 03:22:26;;;;;;;8.73;2.13;;;;;;;;;;4991101;28;20122;-77
2023/03/30 03:24:52;;;;;;;8.30;1.70;;;;;;;;;;4997269;28;20072;-76
2023/03/30 03:27:18;;;;;;;10.03;2.27;;;;;;;;;;5015280;28;20527;-78
2023/03/30 03:29:44;;;;;;;6.93;1.93;;;;;;;;;;4999111;28;20026;-78
2023/03/30 03:32:10;;;;;;;9.43;1.87;;;;;;;;;;5001156;28;20374;-77
2023/03/30 03:34:36;;;;;;;8.10;2.50;;;;;;;;;;5002269;28;20031;-77
2023/03/30 03:37:02;;;;;;;4.13;1.80;;;;;;;;;;4995717;28;20041;-78
2023/03/30 03:39:28;;;;;;;10.20;2.33;;;;;;;;;;5006535;28;20078;-78
2023/03/30 03:41:54;;;;;;;10.67;2.53;;;;;;;;;;5010350;28;20466;-77
2023/03/30 03:44:23;;;;;;;9.57;3.13;;;;;;;;;;4996119;28;20354;-77
2023/03/30 03:46:49;;;;;;;7.00;2.13;;;;;;;;;;4990053;28;20533;-77
2023/03/30 03:49:15;;;;;;;10.40;2.17;;;;;;;;;;4992358;28;20030;-77
2023/03/30 03:51:43;;;;;;;14.37;2.80;;;;;;;;;;5005717;28;20041;-77
2023/03/30 03:54:09;;;;;;;12.53;2.60;;;;;;;;;;4993705;28;20030;-77
2023/03/30 03:56:35;;;;;;;8.80;2.40;;;;;;;;;;4995405;28;20485;-77
2023/03/30 03:59:02;;;;;;;9.47;2.07;;;;;;;;;;4995920;28;20049;-77
2023/03/30 04:01:28;;;;;;;8.70;2.33;;;;;;;;;;4994261;28;20033;-77
2023/03/30 04:03:57;;;;;;;9.93;2.40;;;;;;;;;;4990706;28;20037;-77
2023/03/30 04:06:23;;;;;;;5.83;2.03;;;;;;;;;;4993251;28;20038;-77
2023/03/30 04:08:49;;;;;;;5.47;2.30;;;;;;;;;;4988663;28;20026;-78
2023/03/30 04:11:16;;;;;;;6.23;2.30;;;;;;;;;;4995518;28;20129;-78
2023/03/30 04:13:42;;;;;;;8.80;2.97;;;;;;;;;;4994332;28;20137;-77
2023/03/30 04:16:09;;;;;;;7.80;2.43;;;;;;;;;;4992685;28;20038;-77
2023/03/30 04:18:35;;;;;;;11.37;2.30;;;;;;;;;;5007514;28;20026;-77
2023/03/30 04:21:03;;;;;;;11.10;2.03;;;;;;;;;;4990453;28;20505;-78
2023/03/30 04:23:32;;;;;;;9.67;2.47;;;;;;;;;;4996852;28;20176;-77
2023/03/30 04:26:00;;;;;;;7.03;1.90;;;;;;;;;;4995197;28;20462;-77
2023/03/30 04:28:28;;;;;;;10.03;2.57;;;;;;;;;;4993699;28;20061;-77
2023/03/30 04:31:01;;;;;;;9.23;2.00;;;;;;;;;;4986234;28;20034;-78
2023/03/30 04:33:28;;;;;;;12.43;2.77;;;;;;;;;;4986010;28;20044;-77
2023/03/30 04:35:54;;;;;;;9.10;2.43;;;;;;;;;;4993013;28;20436;-78
2023/03/30 04:38:23;;;;;;;10.03;2.40;;;;;;;;;;4990188;28;20034;-77
2023/03/30 04:40:49;;;;;;;13.03;2.80;;;;;;;;;;5005636;28;20092;-77
2023/03/30 04:43:19;;;;;;;9.87;2.57;;;;;;;;;;4989155;28;20022;-78
2023/03/30 04:45:49;;;;;;;11.17;2.77;;;;;;;;;;4987125;28;20037;-76
2023/03/30 04:48:15;;;;;;;14.67;2.47;;;;;;;;;;4985605;28;20023;-77
2023/03/30 04:50:42;;;;;;;9.10;2.10;;;;;;;;;;4990711;28;20057;-77
2023/03/30 04:53:09;;;;;;;9.37;2.40;;;;;;;;;;4988346;28;20029;-77
2023/03/30 04:55:35;;;;;;;19.23;5.00;;;;;;;;;;4997157;28;20049;-78
2023/03/30 04:58:01;;;;;;;9.70;2.80;;;;;;;;;;5008276;28;20105;-78
2023/03/30 05:00:27;;;;;;;10.03;2.90;;;;;;;;;;5006992;28;20416;-76
2023/03/30 05:02:53;;;;;;;8.40;2.70;;;;;;;;;;5008198;28;20084;-78
2023/03/30 05:05:19;;;;;;;14.63;4.50;;;;;;;;;;4987284;28;20030;-77
2023/03/30 05:07:45;;;;;;;12.17;4.60;;;;;;;;;;4986974;28;20113;-78
2023/03/30 05:10:11;;;;;;;10.80;3.87;;;;;;;;;;4993336;28;20048;-78
2023/03/30 05:12:37;;;;;;;14.60;3.43;;;;;;;;;;4994466;28;21614;-78
2023/03/30 05:15:03;;;;;;;12.23;3.80;;;;;;;;;;4987587;28;20112;-76
2023/03/30 05:17:33;;;;;;;10.33;3.23;;;;;;;;;;5004308;28;20044;-78
2023/03/30 05:19:59;;;;;;;7.73;2.10;;;;;;;;;;5007762;28;20093;-77
2023/03/30 05:22:25;;;;;;;13.50;3.47;;;;;;;;;;4991847;28;20108;-77
2023/03/30 05:24:52;;;;;;;18.87;2.97;;;;;;;;;;4987614;28;20034;-77
2023/03/30 05:27:18;;;;;;;9.80;2.90;;;;;;;;;;5006825;28;20117;-77
2023/03/30 05:29:44;;;;;;;9.83;2.77;;;;;;;;;;4994028;28;20837;-78
2023/03/30 05:32:10;;;;;;;9.47;2.97;;;;;;;;;;4994622;28;20069;-77
2023/03/30 05:34:36;;;;;;;12.53;3.13;;;;;;;;;;4994088;28;20026;-77
2023/03/30 05:37:05;;;;;;;13.57;3.33;;;;;;;;;;5008058;28;20033;-78
2023/03/30 05:39:31;;;;;;;10.60;2.83;;;;;;;;;;5004511;28;20069;-78
2023/03/30 05:41:57;;;;;;;10.37;2.37;;;;;;;;;;4986380;28;20117;-78
2023/03/30 05:44:23;;;;;;;15.15;3.08;;;;;;;;;;4988402;28;20710;-77
2023/03/30 05:46:49;;;;;;;16.50;3.33;;;;;;;;;;4989065;28;20034;-78
2023/03/30 05:49:15;;;;;;;7.57;2.33;;;;;;;;;;4991304;28;20034;-77
2023/03/30 05:51:41;;;;;;;11.82;3.25;;;;;;;;;;5004750;28;20030;-77
2023/03/30 05:54:09;;;;;;;12.63;2.80;;;;;;;;;;4992970;28;20034;-77
2023/03/30 05:56:35;;;;;;;6.93;2.77;;;;;;;;;;4988630;28;20734;-79
2023/03/30 05:59:03;;;;;;;12.52;2.55;;;;;;;;;;5006171;28;20109;-78
2023/03/30 06:01:29;;;;;;;8.77;2.90;;;;;;;;;;5007203;28;20040;-78
2023/03/30 06:03:55;;;;;;;10.37;2.57;;;;;;;;;;4991840;28;20030;-78
2023/03/30 06:06:21;;;;;;;8.57;2.67;;;;;;;;;;4992319;28;20034;-78
2023/03/30 06:08:48;;;;;;;9.05;2.10;;;;;;;;;;5008163;28;20026;-78
2023/03/30 06:11:14;;;;;;;10.33;2.10;;;;;;;;;;4988653;28;20038;-78
2023/03/30 06:13:41;;;;;;;7.73;2.03;;;;;;;;;;4985497;28;20030;-77
2023/03/30 06:16:07;;;;;;;8.40;3.10;;;;;;;;;;4994195;28;20064;-78
2023/03/30 06:18:33;;;;;;;5.23;1.83;;;;;;;;;;5010504;28;20034;-78
2023/03/30 06:21:01;;;;;;;8.10;2.20;;;;;;;;;;4989932;28;20044;-78
2023/03/30 06:23:27;;;;;;;9.30;2.65;;;;;;;;;;4994996;28;20032;-79
2023/03/30 06:25:54;;;;;;;7.37;2.30;;;;;;;;;;4997189;28;20458;-78
2023/03/30 06:28:21;;;;;;;9.47;2.80;;;;;;;;;;4989650;28;20551;-78
2023/03/30 06:30:48;;;;;;;10.38;1.80;;;;;;;;;;4991784;28;20027;-79
2023/03/30 06:33:17;;;;;;;10.50;2.47;;;;;;;;;;4995307;28;20069;-78
2023/03/30 06:35:47;;;;;;;13.00;1.90;;;;;;;;;;4993322;28;20092;-78
2023/03/30 06:38:13;;;;;;;10.30;2.00;;;;;;;;;;5010516;28;20041;-78
2023/03/30 06:40:39;;;;;;;8.52;2.38;;;;;;;;;;4995599;28;20465;-77
2023/03/30 06:43:06;;;;;;;11.27;2.20;;;;;;;;;;4999571;28;20455;-78
2023/03/30 06:45:32;;;;;;;7.03;1.73;;;;;;;;;;5011289;28;20022;-78
2023/03/30 06:47:58;;;;;;;5.13;2.13;;;;;;;;;;4994970;28;20023;-78
2023/03/30 06:50:24;;;;;;;6.97;1.70;;;;;;;;;;4990094;28;20042;-78
2023/03/30 06:52:50;;;;;;;6.45;1.90;;;;;;;;;;4990337;28;20481;-78
2023/03/30 06:55:16;;;;;;;5.95;1.98;;;;;;;;;;4992358;28;20029;-78
2023/03/30 06:57:42;;;;;;;4.82;1.60;;;;;;;;;;5009531;28;20045;-78
2023/03/30 07:00:12;;;;;;;6.55;1.63;;;;;;;;;;4995785;28;20042;-78
2023/03/30 07:02:42;;;;;;;5.65;1.55;;;;;;;;;;5008630;28;20170;-78
2023/03/30 07:05:11;;;;;;;6.35;2.03;;;;;;;;;;5007505;28;20030;-78
2023/03/30 07:07:38;;;;;;;6.90;2.13;;;;;;;;;;4993567;28;20121;-77
2023/03/30 07:10:10;;;;;;;6.88;2.08;;;;;;;;;;4987816;28;20180;-78
2023/03/30 07:12:37;;;;;;;6.03;2.05;;;;;;;;;;4987933;28;20038;-79
2023/03/30 07:15:03;;;;;;;5.47;2.20;;;;;;;;;;4987565;28;20398;-77
2023/03/30 07:17:30;;;;;;;11.50;2.83;;;;;;;;;;5008742;28;20366;-75
2023/03/30 07:19:56;;;;;;;7.88;2.70;;;;;;;;;;4990551;28;20459;-76
2023/03/30 07:22:22;;;;;;;9.02;2.40;;;;;;;;;;5007677;28;20038;-76
2023/03/30 07:24:48;;;;;;;16.20;3.05;;;;;;;;;;5007113;28;20030;-77
2023/03/30 07:27:16;;;;;;;13.43;3.08;;;;;;;;;;4984854;28;20040;-76
2023/03/30 07:29:42;;;;;;;10.32;2.95;;;;;;;;;;4993026;28;20026;-77
2023/03/30 07:32:08;;;;;;;12.90;2.60;;;;;;;;;;4996837;28;20038;-77
2023/03/30 07:34:34;;;;;;;8.82;2.53;;;;;;;;;;4995060;28;21738;-77
2023/03/30 07:37:00;;;;;;;7.13;2.33;;;;;;;;;;4992255;28;20034;-77
2023/03/30 07:39:26;;;;;;;8.60;2.72;;;;;;;;;;4992128;28;20026;-77
2023/03/30 07:41:52;;;;;;;6.00;2.40;;;;;;;;;;5007791;28;21600;-78
2023/03/30 07:44:18;;;;;;;8.85;1.85;;;;;;;;;;4998368;28;20037;-77
2023/03/30 07:46:47;;;;;;;5.32;1.73;;;;;;;;;;4995455;28;20034;-76
2023/03/30 07:49:13;;;;;;;3.97;1.33;;;;;;;;;;5005312;28;20081;-77
2023/03/30 07:51:40;;;;;;;8.88;1.70;;;;;;;;;;4993527;28;20160;-76
2023/03/30 07:54:06;;;;;;;10.50;1.50;;;;;;;;;;4998261;28;20034;-77
2023/03/30 07:56:37;;;;;;;4.43;1.40;;;;;;;;;;4996459;28;20050;-77
2023/03/30 07:59:03;;;;;;;8.23;1.25;;;;;;;;;;4997826;28;20048;-76
2023/03/30 08:01:30;;;;;;;4.88;1.67;;;;;;;;;;5008314;28;20049;-78
2023/03/30 08:03:59;;;;;;;6.93;1.38;;;;;;;;;;4993155;28;20038;-77
2023/03/30 08:06:25;;;;;;;5.18;1.50;;;;;;;;;;5010330;28;20573;-78
2023/03/30 08:08:51;;;;;;;7.68;1.65;;;;;;;;;;4987238;28;20038;-76
2023/03/30 08:11:18;;;;;;;5.28;1.40;;;;;;;;;;4994342;28;20037;-77
2023/03/30 08:13:44;;;;;;;7.53;2.15;;;;;;;;;;4990761;28;20029;-77
2023/03/30 08:16:10;;;;;;;5.88;1.50;;;;;;;;;;5006224;28;20497;-75
2023/03/30 08:18:36;;;;;;;3.22;1.27;;;;;;;;;;4994223;28;20450;-77
2023/03/30 08:21:03;;;;;;;6.72;1.38;;;;;;;;;;4987133;28;20525;-78
2023/03/30 08:23:33;;;;;;;9.27;1.52;;;;;;;;;;4991093;28;20041;-77
2023/03/30 08:26:00;;;;;;;7.43;1.40;;;;;;;;;;5008434;28;20025;-77
2023/03/30 08:28:26;;;;;;;6.82;1.33;;;;;;;;;;4995064;28;20092;-77
2023/03/30 08:30:53;;;;;;;4.95;1.33;;;;;;;;;;4990521;28;20030;-78
2023/03/30 08:33:19;;;;;;;8.57;2.15;;;;;;;;;;4986793;28;20034;-77
2023/03/30 08:35:46;;;;;;;4.55;1.33;;;;;;;;;;4988519;28;20116;-76
2023/03/30 08:38:16;;;;;;;4.95;1.48;;;;;;;;;;4986994;28;20026;-77
2023/03/30 08:40:45;;;;;;;8.02;2.03;;;;;;;;;;5007011;28;20034;-76
2023/03/30 08:43:11;;;;;;;6.30;1.60;;;;;;;;;;4987956;28;20076;-78
2023/03/30 08:45:38;;;;;;;8.17;1.43;;;;;;;;;;4995706;28;20045;-77
2023/03/30 08:48:07;;;;;;;7.18;1.55;;;;;;;;;;4985537;28;20801;-78
2023/03/30 08:50:34;;;;;;;4.30;1.40;;;;;;;;;;4993131;28;20044;-76
2023/03/30 08:53:00;;;;;;;11.07;1.50;;;;;;;;;;4995281;28;20355;-76
2023/03/30 08:55:26;;;;;;;6.97;1.73;;;;;;;;;;5006765;28;20030;-78
2023/03/30 08:57:53;;;;;;;15.03;2.00;;;;;;;;;;4993153;28;20029;-77
2023/03/30 09:00:32;;;;;;;4.80;1.53;;;;;;;;;;4991775;28;20040;-77
2023/03/30 09:03:06;;;;;;;6.83;1.57;;;;;;;;;;5007056;28;20097;-78
2023/03/30 09:05:36;;;;;;;4.47;1.67;;;;;;;;;;4993943;28;20037;-77
2023/03/30 09:08:04;;;;;;;7.40;1.37;;;;;;;;;;4988063;28;20030;-77
2023/03/30 09:10:34;;;;;;;6.97;1.37;;;;;;;;;;5007281;28;20046;-77
2023/03/30 09:13:02;;;;;;;8.20;2.23;;;;;;;;;;5007884;28;20048;-77
2023/03/30 09:15:34;;;;;;;12.77;1.43;;;;;;;;;;4993294;28;20046;-76
2023/03/30 09:18:29;;;;;;;9.57;2.00;;;;;;;;;;5006686;28;20030;-77
2023/03/30 09:20:58;;;;;;;7.65;2.00;;;;;;;;;;4984740;28;20034;-77
2023/03/30 09:23:25;;;;;;;8.40;1.27;;;;;;;;;;4986905;28;20048;-77
2023/03/30 09:26:07;;;;;;;10.50;1.33;;;;;;;;;;5005467;28;20038;-77
2023/03/30 09:29:09;;;;;;;10.97;1.47;;;;;;;;;;5005708;28;20030;-78
2023/03/30 09:31:43;;;;;;;5.77;0.70;;;;;;;;;;4930498;29;20378;-76
2023/03/30 09:34:21;;;;;;;6.83;1.23;;;;;;;;;;4995861;28;20041;-77
2023/03/30 09:37:02;;;;;;;9.17;1.20;;;;;;;;;;5009468;28;20038;-78
2023/03/30 09:39:30;;;;;;;4.17;0.93;;;;;;;;;;4994467;28;20029;-77
2023/03/30 09:42:05;;;;;;;6.47;1.23;;;;;;;;;;4990681;28;20057;-78
2023/03/30 09:44:36;;;;;;;4.40;0.90;;;;;;;;;;4987650;28;20095;-77
2023/03/30 09:47:02;;;;;;;9.00;1.00;;;;;;;;;;4985884;28;20030;-78
2023/03/30 09:49:29;;;;;;;7.63;1.30;;;;;;;;;;4992697;28;20092;-78
2023/03/30 09:52:03;;;;;;;9.37;1.30;;;;;;;;;;4995840;28;20041;-78
2023/03/30 09:54:41;;;;;;;9.17;1.10;;;;;;;;;;5009609;28;20096;-78
2023/03/30 09:57:25;;;;;;;13.47;1.70;;;;;;;;;;4995765;28;20119;-77
2023/03/30 09:59:54;;;;;;;12.73;1.87;;;;;;;;;;5007401;28;20030;-78
2023/03/30 10:02:21;;;;;;;6.43;1.83;;;;;;;;;;5009532;28;20022;-78
2023/03/30 10:04:53;;;;;;;9.40;1.37;;;;;;;;;;4994614;28;20124;-77
2023/03/30 10:07:30;;;;;;;9.15;1.35;;;;;;;;;;5008734;28;20022;-78
2023/03/30 10:09:57;;;;;;;5.20;1.67;;;;;;;;;;4994298;28;20088;-78
2023/03/30 10:12:27;;;;;;;10.40;1.57;;;;;;;;;;4988529;28;20032;-78
2023/03/30 10:14:54;;;;;;;5.70;1.17;;;;;;;;;;5008152;28;20022;-77
2023/03/30 10:17:23;;;;;;;8.83;1.40;;;;;;;;;;4986608;28;20068;-78
2023/03/30 10:19:51;;;;;;;7.53;1.63;;;;;;;;;;4995526;28;20036;-78
2023/03/30 10:22:21;;;;;;;5.80;0.77;;;;;;;;;;4997613;28;20029;-77
2023/03/30 10:24:52;;;;;;;7.17;1.40;;;;;;;;;;5007385;28;20256;-78
2023/03/30 10:27:18;;;;;;;6.47;1.00;;;;;;;;;;4989958;28;20126;-77
2023/03/30 10:29:49;;;;;;;5.83;0.70;;;;;;;;;;5009047;28;20034;-77
2023/03/30 10:32:17;;;;;;;5.33;0.80;;;;;;;;;;4997160;28;20038;-78
2023/03/30 10:34:44;;;;;;;3.30;0.73;;;;;;;;;;4985821;28;20732;-76
2023/03/30 10:37:26;;;;;;;6.60;0.93;;;;;;;;;;5007557;28;20083;-76
2023/03/30 10:39:52;;;;;;;6.10;0.60;;;;;;;;;;5010648;28;20060;-76
2023/03/30 10:42:20;;;;;;;4.90;1.10;;;;;;;;;;5008055;28;20103;-77
2023/03/30 10:44:54;;;;;;;3.07;0.73;;;;;;;;;;5008072;28;20343;-77
2023/03/30 10:47:31;;;;;;;4.70;1.00;;;;;;;;;;4987254;28;20030;-77
2023/03/30 10:50:00;;;;;;;2.00;0.93;;;;;;;;;;5007393;28;20030;-78
2023/03/30 10:52:31;;;;;;;2.43;0.53;;;;;;;;;;5006211;28;20022;-78
2023/03/30 10:55:00;;;;;;;3.77;1.00;;;;;;;;;;4990468;28;20089;-78
2023/03/30 10:57:35;;;;;;;6.97;1.00;;;;;;;;;;5007879;28;20026;-75
2023/03/30 11:00:01;;;;;;;1.73;0.70;;;;;;;;;;4986928;28;21657;-76
2023/03/30 11:02:45;;;;;;;2.80;0.90;;;;;;;;;;4992928;28;20026;-76
2023/03/30 11:05:17;;;;;;;4.43;0.90;;;;;;;;;;5006175;28;20144;-75
2023/03/30 11:07:52;;;;;;;2.63;0.63;;;;;;;;;;4997673;28;20037;-77
2023/03/30 11:10:30;;;;;;;3.97;1.00;;;;;;;;;;4987842;28;20033;-76
2023/03/30 11:12:59;;;;;;;3.43;0.80;;;;;;;;;;5007345;28;20033;-77
2023/03/30 11:15:30;;;;;;;3.57;0.60;;;;;;;;;;5003341;28;20040;-76
2023/03/30 11:18:05;;;;;;;5.50;1.30;;;;;;;;;;5008687;28;20363;-75
2023/03/30 11:20:40;;;;;;;6.67;0.87;;;;;;;;;;4993651;28;20199;-76
2023/03/30 11:23:22;;;;;;;4.87;1.10;;;;;;;;;;4991801;28;20057;-75
2023/03/30 11:25:53;;;;;;;4.07;1.10;;;;;;;;;;4991203;28;20446;-76
2023/03/30 11:28:28;;;;;;;9.03;2.07;;;;;;;;;;4985492;28;20523;-77
2023/03/30 11:30:55;;;;;;;7.63;1.27;;;;;;;;;;5007020;28;20065;-76
2023/03/30 11:33:40;;;;;;;7.07;1.27;;;;;;;;;;5005886;28;20061;-75
2023/03/30 11:36:16;;;;;;;10.50;1.80;;;;;;;;;;4994622;28;20113;-75
2023/03/30 11:38:46;;;;;;;10.43;2.23;;;;;;;;;;4989582;28;20459;-76
2023/03/30 11:41:18;;;;;;;10.47;2.00;;;;;;;;;;5007332;28;20026;-76
2023/03/30 11:43:44;;;;;;;7.95;2.15;;;;;;;;;;4990184;28;20042;-76
2023/03/30 11:46:27;;;;;;;13.13;3.63;;;;;;;;;;5008377;28;20080;-75
2023/03/30 11:49:06;;;;;;;11.77;2.50;;;;;;;;;;5010224;28;20030;-76
2023/03/30 11:51:44;;;;;;;10.17;2.10;;;;;;;;;;4985561;28;20453;-77
2023/03/30 11:54:29;;;;;;;7.30;1.20;;;;;;;;;;5006862;28;20474;-77
2023/03/30 11:57:01;;;;;;;7.63;1.33;;;;;;;;;;4992156;28;20048;-77
2023/03/30 11:59:27;;;;;;;;;;;;;;;;;;4989932;28;20086;-76
2023/03/30 12:01:56;;;;;;;8.63;1.83;;;;;;;;;;5006826;28;20008;-77
2023/03/30 12:04:31;;;;;;;5.25;1.23;;;;;;;;;;4994842;28;20030;-76
2023/03/30 12:06:59;;;;;;;5.15;1.30;;;;;;;;;;5005588;28;20033;-77
2023/03/30 12:09:33;;;;;;;6.30;1.38;;;;;;;;;;5004366;28;20470;-76
2023/03/30 12:12:09;;;;;;;4.25;1.02;;;;;;;;;;4992755;28;20053;-76
2023/03/30 12:14:47;;;;;;;5.60;1.10;;;;;;;;;;4990477;28;20048;-77
2023/03/30 12:17:24;;;;;;;5.88;1.15;;;;;;;;;;5003850;28;20065;-75
2023/03/30 12:20:11;;;;;;;5.22;1.23;;;;;;;;;;4992652;28;20505;-76
2023/03/30 12:22:37;;;;;;;1.27;0.70;;;;;;;;;;5005214;28;20026;-75
2023/03/30 12:25:18;;;;;;;3.25;0.90;;;;;;;;;;5006213;28;20030;-76
2023/03/30 12:28:22;;;;;;;4.55;0.93;;;;;;;;;;5005037;28;20041;-76
2023/03/30 12:30:57;;;;;;;5.75;1.10;;;;;;;;;;4927613;29;20043;-77
2023/03/30 12:33:27;;;;;;;4.23;0.90;;;;;;;;;;4924889;29;20046;-75
2023/03/30 12:35:58;;;;;;;3.77;1.00;;;;;;;;;;4927285;29;20094;-76
2023/03/30 12:38:37;;;;;;;4.00;1.10;;;14.70;99.90;;;;;;4928396;29;20050;-76
2023/03/30 12:41:12;;;;;;;6.50;1.40;;;;;;;;;;4925260;29;20036;-76
2023/03/30 12:43:45;;;;;;;5.97;1.37;;;;;;;;;;4915584;29;20385;-76
2023/03/30 12:46:18;;;;;;;6.80;1.85;;;;;;;;;;4929290;29;20074;-77
2023/03/30 12:48:59;;;;;;;7.07;1.37;;;;;;;;;;4928506;29;20182;-77
2023/03/30 12:51:43;;;;;;;13.00;2.70;;;;;;;;;;4929988;29;20032;-77
2023/03/30 12:54:21;;;;;;;8.63;1.53;;;;;;;;;;4918044;29;20048;-77
2023/03/30 12:56:50;;;;;;;6.40;1.30;;;;;;;;;;4912578;29;20063;-77
2023/03/30 12:59:28;;;;;;;9.93;1.87;;;;;;;;;;4928856;29;20032;-76
2023/03/30 13:02:07;;;;;;;8.37;1.70;;;;;;;;;;4976146;28;20046;-76
2023/03/30 13:04:36;;;;;;;10.00;2.20;;;;;;;;;;5008439;28;20033;-76
2023/03/30 13:07:04;;;;;;;8.87;1.90;;;;;;;;;;4997865;28;20076;-77
2023/03/30 13:09:34;;;;;;;10.13;2.20;;;;;;;;;;5004635;28;20088;-77
2023/03/30 13:12:00;;;;;;;3.30;1.17;;;;;;;;;;4983274;28;20026;-76
2023/03/30 13:14:33;;;;;;;7.60;1.50;;;;;;;;;;4988066;28;20088;-75
2023/03/30 13:16:59;;;;;;;4.93;1.40;;;;;;;;;;4991222;28;20034;-77
2023/03/30 13:19:32;;;;;;;5.00;0.97;;;;;;;;;;5004773;28;20340;-75
2023/03/30 13:21:57;;;;;;;8.60;1.02;;;;;;;;;;5004983;28;20041;-76
2023/03/30 13:24:30;;;;;;;5.70;0.70;;;;;;;;;;4991404;28;20026;-76
2023/03/30 13:27:10;;;;;;;5.35;1.08;;;;;;;;;;4991736;28;20029;-76
2023/03/30 13:29:36;;;;;;;3.07;0.60;;;;;;;;;;5004883;28;20062;-75
2023/03/30 13:32:08;;;;;;;3.50;0.70;;;;;;;;;;5003897;28;20038;-75
2023/03/30 13:34:47;;;;;;;6.90;1.40;;;;;;;;;;4991251;28;20072;-77
2023/03/30 13:37:26;;;;;;;3.43;0.97;;;;;;;;;;4991391;28;20061;-77
2023/03/30 13:39:55;;;;;;;5.03;1.73;;;;;;;;;;4990242;28;20061;-77
2023/03/30 13:42:30;;;;;;;6.97;1.20;;;;;;;;;;5004626;28;20022;-75
2023/03/30 13:45:02;;;;;;;5.47;1.00;;;;;;;;;;5003913;28;20040;-77
2023/03/30 13:47:34;;;;;;;6.85;1.30;;;;;;;;;;5004113;28;20017;-77
2023/03/30 13:50:02;;;;;;;6.30;1.30;;;;;;;;;;5007145;28;20022;-77
2023/03/30 13:52:33;;;;;;;6.40;1.43;;;;;;;;;;5006070;28;20022;-77
2023/03/30 13:55:01;;;;;;;5.67;1.30;;;;;;;;;;4988118;28;20034;-76
2023/03/30 13:57:37;;;;;;;4.07;0.80;;;;;;;;;;4982848;28;20035;-76
2023/03/30 14:00:07;;;;;;;3.43;0.70;;;;;;;;;;5003036;28;20025;-76
2023/03/30 14:02:33;;;;;;;5.53;0.93;;;;;;;;;;5001986;28;20065;-76
2023/03/30 14:05:14;;;;;;;3.73;0.97;;;;;;;;;;5005014;28;20174;-76
2023/03/30 14:07:46;;;;;;;2.30;0.80;;;;;;;;;;4988242;28;20037;-77
2023/03/30 14:10:17;;;;;;;2.42;0.57;;;;;;;;;;5005550;28;20041;-76
2023/03/30 14:12:44;;;;;;;5.20;1.03;;;;;;;;;;4990512;28;20487;-77
2023/03/30 14:15:17;;;;;;;6.53;0.83;;;;;;;;;;4982878;28;20038;-76
2023/03/30 14:17:50;;;;;;;8.37;1.40;;;;;;;;;;5007810;28;20034;-76
2023/03/30 14:20:22;;;;;;;5.95;1.35;;;;;;;;;;4981671;28;20054;-76
2023/03/30 14:22:55;;;;;;;8.10;2.10;;;;;;;;;;4987003;28;20575;-77
2023/03/30 14:25:21;;;;;;;;;;;;;;;;;;4992343;28;20112;-77
2023/03/30 14:27:47;;;;;;;6.57;1.80;;;;;;;;;;4989518;28;20377;-75
2023/03/30 14:30:24;;;;;;;4.32;1.50;;;;;;;;;;4986094;28;20034;-76
2023/03/30 14:33:09;;;;;;;7.60;1.50;;;;;;;;;;5001126;28;20041;-75
2023/03/30 14:35:39;;;;;;;5.88;2.00;;;;;;;;;;4992660;28;20026;-77
2023/03/30 14:38:05;;;;;;;7.25;1.30;;;;;;;;;;5004793;28;20033;-77
2023/03/30 14:40:31;;;;;;;3.80;1.38;;;;;;;;;;4989397;28;20071;-76
2023/03/30 14:42:58;;;;;;;6.22;1.65;;;;;;;;;;5006438;28;20057;-77
2023/03/30 14:45:27;;;;;;;9.13;1.92;;;;;;;;;;5005036;28;20041;-77
2023/03/30 14:47:55;;;;;;;6.82;1.75;;;;;;;;;;4996830;28;20074;-77
2023/03/30 14:50:22;;;;;;;10.48;2.00;;;;;;;;;;4991845;28;20034;-77
2023/03/30 14:52:48;;;;;;;12.93;2.10;;;;;;;;;;4985777;28;20080;-76
2023/03/30 14:55:23;;;;;;;10.02;1.75;;;;;;;;;;5005937;28;20454;-75
2023/03/30 14:57:49;;;;;;;13.40;2.38;;;;;;;;;;4991043;28;20109;-76